sensor_id;sensor_type;location;lat;lon;timestamp;temperature;humidity
65470;DHT22;52067;50.710;14.492;2022-09-09T00:04:38;11.28;90.07
65470;DHT22;52067;50.710;14.492;2022-09-09T00:10:04;11.21;89.54
65470;DHT22;52067;50.710;14.492;2022-09-09T00:12:50;11.03;89.70
65470;DHT22;52067;50.710;14.492;2022-09-09T00:15:20;10.96;90.31
65470;DHT22;52067;50.710;14.492;2022-09-09T00:17:57;11.09;89.82
65470;DHT22;52067;50.710;14.492;2022-09-09T00:20:36;11.10;89.74
65470;DHT22;52067;50.710;14.492;2022-09-09T00:23:12;10.72;90.75
65470;DHT22;52067;50.710;14.492;2022-09-09T00:25:50;10.82;90.86
65470;DHT22;52067;50.710;14.492;2022-09-09T00:28:23;10.86;90.42
65470;DHT22;52067;50.710;14.492;2022-09-09T00:30:50;10.90;89.93
65470;DHT22;52067;50.710;14.492;2022-09-09T00:33:20;11.00;89.83
65470;DHT22;52067;50.710;14.492;2022-09-09T00:38:18;10.92;89.72
65470;DHT22;52067;50.710;14.492;2022-09-09T00:40:51;10.99;89.57
65470;DHT22;52067;50.710;14.492;2022-09-09T00:43:31;10.79;89.88
65470;DHT22;52067;50.710;14.492;2022-09-09T00:46:05;10.76;90.25
65470;DHT22;52067;50.710;14.492;2022-09-09T01:02:16;10.77;89.05
65470;DHT22;52067;50.710;14.492;2022-09-09T01:04:47;10.30;90.66
65470;DHT22;52067;50.710;14.492;2022-09-09T01:07:21;10.08;90.88
65470;DHT22;52067;50.710;14.492;2022-09-09T01:09:57;10.30;91.02
65470;DHT22;52067;50.710;14.492;2022-09-09T01:15:03;10.15;90.07
65470;DHT22;52067;50.710;14.492;2022-09-09T01:17:33;10.17;90.49
65470;DHT22;52067;50.710;14.492;2022-09-09T01:20:15;10.11;90.51
65470;DHT22;52067;50.710;14.492;2022-09-09T01:23:09;10.20;90.72
65470;DHT22;52067;50.710;14.492;2022-09-09T01:28:46;9.95;91.20
65470;DHT22;52067;50.710;14.492;2022-09-09T01:31:18;9.97;91.24
65470;DHT22;52067;50.710;14.492;2022-09-09T01:33:44;10.11;90.86
65470;DHT22;52067;50.710;14.492;2022-09-09T01:36:20;10.28;90.62
65470;DHT22;52067;50.710;14.492;2022-09-09T01:38:46;10.38;90.33
65470;DHT22;52067;50.710;14.492;2022-09-09T01:41:12;10.20;89.79
65470;DHT22;52067;50.710;14.492;2022-09-09T01:43:37;10.11;90.32
65470;DHT22;52067;50.710;14.492;2022-09-09T01:46:03;9.94;90.43
65470;DHT22;52067;50.710;14.492;2022-09-09T01:48:29;9.79;91.15
65470;DHT22;52067;50.710;14.492;2022-09-09T01:50:55;9.91;90.82
65470;DHT22;52067;50.710;14.492;2022-09-09T01:53:21;9.89;90.35
65470;DHT22;52067;50.710;14.492;2022-09-09T01:55:58;9.80;90.50
65470;DHT22;52067;50.710;14.492;2022-09-09T02:03:56;10.04;89.77
65470;DHT22;52067;50.710;14.492;2022-09-09T02:06:39;10.05;89.56
65470;DHT22;52067;50.710;14.492;2022-09-09T02:09:06;9.69;90.34
65470;DHT22;52067;50.710;14.492;2022-09-09T02:11:33;9.72;90.73
65470;DHT22;52067;50.710;14.492;2022-09-09T02:14:08;9.53;90.88
65470;DHT22;52067;50.710;14.492;2022-09-09T02:16:42;9.64;91.12
65470;DHT22;52067;50.710;14.492;2022-09-09T02:19:17;9.84;90.57
65470;DHT22;52067;50.710;14.492;2022-09-09T02:21:46;9.80;90.19
65470;DHT22;52067;50.710;14.492;2022-09-09T02:24:14;9.95;90.17
65470;DHT22;52067;50.710;14.492;2022-09-09T02:26:42;10.00;89.71
65470;DHT22;52067;50.710;14.492;2022-09-09T02:29:23;9.94;89.47
65470;DHT22;52067;50.710;14.492;2022-09-09T02:31:50;9.74;90.22
65470;DHT22;52067;50.710;14.492;2022-09-09T02:34:17;9.56;90.75
65470;DHT22;52067;50.710;14.492;2022-09-09T02:36:45;9.49;90.92
65470;DHT22;52067;50.710;14.492;2022-09-09T02:39:12;9.50;90.96
65470;DHT22;52067;50.710;14.492;2022-09-09T02:41:40;9.55;90.86
65470;DHT22;52067;50.710;14.492;2022-09-09T02:44:16;9.66;90.44
65470;DHT22;52067;50.710;14.492;2022-09-09T02:47:08;9.72;89.93
65470;DHT22;52067;50.710;14.492;2022-09-09T02:52:07;9.64;89.27
65470;DHT22;52067;50.710;14.492;2022-09-09T02:54:35;9.52;89.94
65470;DHT22;52067;50.710;14.492;2022-09-09T02:57:38;9.55;89.55
65470;DHT22;52067;50.710;14.492;2022-09-09T03:00:04;9.49;89.76
65470;DHT22;52067;50.710;14.492;2022-09-09T03:02:30;9.67;89.62
65470;DHT22;52067;50.710;14.492;2022-09-09T03:04:56;9.72;89.13
65470;DHT22;52067;50.710;14.492;2022-09-09T03:07:21;9.66;89.25
65470;DHT22;52067;50.710;14.492;2022-09-09T03:09:46;9.67;89.09
65470;DHT22;52067;50.710;14.492;2022-09-09T03:12:12;9.73;88.82
65470;DHT22;52067;50.710;14.492;2022-09-09T03:14:38;9.67;88.59
65470;DHT22;52067;50.710;14.492;2022-09-09T03:17:04;9.73;88.70
65470;DHT22;52067;50.710;14.492;2022-09-09T03:19:30;9.56;88.82
65470;DHT22;52067;50.710;14.492;2022-09-09T03:21:56;9.46;89.23
65470;DHT22;52067;50.710;14.492;2022-09-09T03:24:21;9.50;89.00
65470;DHT22;52067;50.710;14.492;2022-09-09T03:26:48;9.55;89.25
65470;DHT22;52067;50.710;14.492;2022-09-09T03:29:13;9.36;89.41
65470;DHT22;52067;50.710;14.492;2022-09-09T03:31:40;9.40;89.24
65470;DHT22;52067;50.710;14.492;2022-09-09T03:34:05;9.36;89.07
65470;DHT22;52067;50.710;14.492;2022-09-09T03:36:31;9.32;89.31
65470;DHT22;52067;50.710;14.492;2022-09-09T03:38:57;9.38;89.64
65470;DHT22;52067;50.710;14.492;2022-09-09T03:41:24;9.28;89.63
65470;DHT22;52067;50.710;14.492;2022-09-09T03:43:50;9.16;89.94
65470;DHT22;52067;50.710;14.492;2022-09-09T03:46:17;9.25;89.86
65470;DHT22;52067;50.710;14.492;2022-09-09T03:48:43;9.36;89.36
65470;DHT22;52067;50.710;14.492;2022-09-09T03:51:08;9.28;89.63
65470;DHT22;52067;50.710;14.492;2022-09-09T03:53:33;9.34;89.41
65470;DHT22;52067;50.710;14.492;2022-09-09T03:55:59;9.22;89.74
65470;DHT22;52067;50.710;14.492;2022-09-09T03:58:26;9.19;89.78
65470;DHT22;52067;50.710;14.492;2022-09-09T04:01:01;9.34;89.87
65470;DHT22;52067;50.710;14.492;2022-09-09T04:03:27;9.40;89.61
65470;DHT22;52067;50.710;14.492;2022-09-09T04:05:54;9.03;89.74
65470;DHT22;52067;50.710;14.492;2022-09-09T04:08:20;9.12;90.33
65470;DHT22;52067;50.710;14.492;2022-09-09T04:10:47;9.25;89.89
65470;DHT22;52067;50.710;14.492;2022-09-09T04:13:14;9.28;89.92
65470;DHT22;52067;50.710;14.492;2022-09-09T04:15:40;9.00;90.68
65470;DHT22;52067;50.710;14.492;2022-09-09T04:18:05;9.12;90.74
65470;DHT22;52067;50.710;14.492;2022-09-09T04:20:31;9.16;90.27
65470;DHT22;52067;50.710;14.492;2022-09-09T04:22:57;9.24;90.07
65470;DHT22;52067;50.710;14.492;2022-09-09T04:25:23;9.18;90.44
65470;DHT22;52067;50.710;14.492;2022-09-09T04:27:55;9.10;90.37
65470;DHT22;52067;50.710;14.492;2022-09-09T04:30:21;9.18;90.33
65470;DHT22;52067;50.710;14.492;2022-09-09T04:32:47;9.00;90.29
65470;DHT22;52067;50.710;14.492;2022-09-09T04:35:12;9.29;89.94
65470;DHT22;52067;50.710;14.492;2022-09-09T04:37:38;8.98;90.33
65470;DHT22;52067;50.710;14.492;2022-09-09T04:40:03;9.21;90.49
65470;DHT22;52067;50.710;14.492;2022-09-09T04:42:29;9.34;89.75
65470;DHT22;52067;50.710;14.492;2022-09-09T04:44:55;9.34;89.47
65470;DHT22;52067;50.710;14.492;2022-09-09T04:47:20;9.26;89.85
65470;DHT22;52067;50.710;14.492;2022-09-09T04:49:46;9.29;89.82
65470;DHT22;52067;50.710;14.492;2022-09-09T04:52:12;9.31;90.17
65470;DHT22;52067;50.710;14.492;2022-09-09T04:54:38;9.42;89.92
65470;DHT22;52067;50.710;14.492;2022-09-09T04:57:04;9.59;89.71
65470;DHT22;52067;50.710;14.492;2022-09-09T04:59:30;9.64;89.57
65470;DHT22;52067;50.710;14.492;2022-09-09T05:01:55;9.74;89.47
65470;DHT22;52067;50.710;14.492;2022-09-09T05:04:21;9.57;89.78
65470;DHT22;52067;50.710;14.492;2022-09-09T05:06:46;9.69;89.88
65470;DHT22;52067;50.710;14.492;2022-09-09T05:09:12;9.57;89.84
65470;DHT22;52067;50.710;14.492;2022-09-09T05:11:37;9.49;90.31
65470;DHT22;52067;50.710;14.492;2022-09-09T05:14:03;9.77;90.36
65470;DHT22;52067;50.710;14.492;2022-09-09T05:16:29;9.98;90.07
65470;DHT22;52067;50.710;14.492;2022-09-09T05:18:55;9.93;90.11
65470;DHT22;52067;50.710;14.492;2022-09-09T05:21:22;9.89;90.08
65470;DHT22;52067;50.710;14.492;2022-09-09T05:23:48;9.95;90.08
65470;DHT22;52067;50.710;14.492;2022-09-09T05:26:16;10.11;90.04
65470;DHT22;52067;50.710;14.492;2022-09-09T05:28:41;10.07;90.15
65470;DHT22;52067;50.710;14.492;2022-09-09T05:31:08;10.41;90.03
65470;DHT22;52067;50.710;14.492;2022-09-09T05:33:36;10.49;89.96
65470;DHT22;52067;50.710;14.492;2022-09-09T05:36:07;10.41;90.33
65470;DHT22;52067;50.710;14.492;2022-09-09T05:38:34;10.72;90.09
65470;DHT22;52067;50.710;14.492;2022-09-09T05:41:00;10.83;89.77
65470;DHT22;52067;50.710;14.492;2022-09-09T05:43:26;10.79;89.82
65470;DHT22;52067;50.710;14.492;2022-09-09T05:46:06;11.10;89.65
65470;DHT22;52067;50.710;14.492;2022-09-09T05:48:44;11.31;89.24
65470;DHT22;52067;50.710;14.492;2022-09-09T05:51:12;11.21;89.46
65470;DHT22;52067;50.710;14.492;2022-09-09T05:53:40;11.48;89.45
65470;DHT22;52067;50.710;14.492;2022-09-09T05:56:08;11.71;89.14
65470;DHT22;52067;50.710;14.492;2022-09-09T05:58:38;11.88;88.77
65470;DHT22;52067;50.710;14.492;2022-09-09T06:01:08;11.85;89.08
65470;DHT22;52067;50.710;14.492;2022-09-09T06:03:36;11.98;89.17
65470;DHT22;52067;50.710;14.492;2022-09-09T06:06:04;12.15;88.47
65470;DHT22;52067;50.710;14.492;2022-09-09T06:08:31;12.40;88.11
65470;DHT22;52067;50.710;14.492;2022-09-09T06:11:04;12.48;87.98
65470;DHT22;52067;50.710;14.492;2022-09-09T06:13:30;12.41;88.14
65470;DHT22;52067;50.710;14.492;2022-09-09T06:15:56;12.77;87.86
65470;DHT22;52067;50.710;14.492;2022-09-09T06:18:21;12.80;87.51
65470;DHT22;52067;50.710;14.492;2022-09-09T06:21:05;12.98;87.49
65470;DHT22;52067;50.710;14.492;2022-09-09T06:23:32;12.51;89.45
65470;DHT22;52067;50.710;14.492;2022-09-09T06:26:06;12.58;90.79
65470;DHT22;52067;50.710;14.492;2022-09-09T06:28:35;12.88;89.69
65470;DHT22;52067;50.710;14.492;2022-09-09T06:31:03;12.98;88.98
65470;DHT22;52067;50.710;14.492;2022-09-09T06:33:36;13.20;89.57
65470;DHT22;52067;50.710;14.492;2022-09-09T06:36:04;13.35;88.99
65470;DHT22;52067;50.710;14.492;2022-09-09T06:38:30;13.59;88.63
65470;DHT22;52067;50.710;14.492;2022-09-09T06:40:59;13.73;88.58
65470;DHT22;52067;50.710;14.492;2022-09-09T06:43:25;13.83;88.48
65470;DHT22;52067;50.710;14.492;2022-09-09T06:46:09;13.81;89.08
65470;DHT22;52067;50.710;14.492;2022-09-09T06:48:35;14.08;88.54
65470;DHT22;52067;50.710;14.492;2022-09-09T06:53:32;14.17;88.87
65470;DHT22;52067;50.710;14.492;2022-09-09T06:56:02;14.35;88.90
65470;DHT22;52067;50.710;14.492;2022-09-09T06:58:28;14.22;89.14
65470;DHT22;52067;50.710;14.492;2022-09-09T07:01:04;14.08;89.45
65470;DHT22;52067;50.710;14.492;2022-09-09T07:03:30;14.29;89.37
65470;DHT22;52067;50.710;14.492;2022-09-09T07:05:56;14.46;89.17
65470;DHT22;52067;50.710;14.492;2022-09-09T07:08:22;14.25;90.64
65470;DHT22;52067;50.710;14.492;2022-09-09T07:10:48;14.65;89.14
65470;DHT22;52067;50.710;14.492;2022-09-09T07:13:14;14.73;88.63
65470;DHT22;52067;50.710;14.492;2022-09-09T07:15:41;14.97;87.89
65470;DHT22;52067;50.710;14.492;2022-09-09T07:18:07;14.72;88.36
65470;DHT22;52067;50.710;14.492;2022-09-09T07:20:32;14.97;88.15
65470;DHT22;52067;50.710;14.492;2022-09-09T07:22:57;14.86;88.34
65470;DHT22;52067;50.710;14.492;2022-09-09T07:25:23;15.06;88.36
65470;DHT22;52067;50.710;14.492;2022-09-09T07:27:49;15.08;88.05
65470;DHT22;52067;50.710;14.492;2022-09-09T07:30:14;15.18;87.72
65470;DHT22;52067;50.710;14.492;2022-09-09T07:32:39;15.24;88.26
65470;DHT22;52067;50.710;14.492;2022-09-09T07:35:05;15.49;87.46
65470;DHT22;52067;50.710;14.492;2022-09-09T07:37:31;15.65;86.78
65470;DHT22;52067;50.710;14.492;2022-09-09T07:39:56;15.66;85.87
65470;DHT22;52067;50.710;14.492;2022-09-09T07:42:22;15.79;85.62
65470;DHT22;52067;50.710;14.492;2022-09-09T07:44:47;15.66;85.24
65470;DHT22;52067;50.710;14.492;2022-09-09T07:47:12;15.72;85.24
65470;DHT22;52067;50.710;14.492;2022-09-09T07:49:38;15.61;85.51
65470;DHT22;52067;50.710;14.492;2022-09-09T07:52:04;15.85;85.52
65470;DHT22;52067;50.710;14.492;2022-09-09T07:54:29;15.39;86.96
65470;DHT22;52067;50.710;14.492;2022-09-09T07:56:54;15.81;85.68
65470;DHT22;52067;50.710;14.492;2022-09-09T07:59:20;15.34;88.11
65470;DHT22;52067;50.710;14.492;2022-09-09T08:01:48;15.55;87.26
65470;DHT22;52067;50.710;14.492;2022-09-09T08:04:19;15.65;87.43
65470;DHT22;52067;50.710;14.492;2022-09-09T08:06:52;16.00;86.06
65470;DHT22;52067;50.710;14.492;2022-09-09T08:09:19;16.09;85.25
65470;DHT22;52067;50.710;14.492;2022-09-09T08:11:44;16.18;83.90
65470;DHT22;52067;50.710;14.492;2022-09-09T08:14:11;16.37;84.29
65470;DHT22;52067;50.710;14.492;2022-09-09T08:16:39;16.51;83.76
65470;DHT22;52067;50.710;14.492;2022-09-09T08:19:05;16.55;82.69
65470;DHT22;52067;50.710;14.492;2022-09-09T08:21:33;16.67;82.84
65470;DHT22;52067;50.710;14.492;2022-09-09T08:24:00;16.44;84.13
65470;DHT22;52067;50.710;14.492;2022-09-09T08:26:27;16.74;82.61
65470;DHT22;52067;50.710;14.492;2022-09-09T08:28:54;17.06;82.13
65470;DHT22;52067;50.710;14.492;2022-09-09T08:33:54;17.26;81.39
65470;DHT22;52067;50.710;14.492;2022-09-09T08:36:21;17.11;81.48
65470;DHT22;52067;50.710;14.492;2022-09-09T08:38:48;17.39;81.01
65470;DHT22;52067;50.710;14.492;2022-09-09T08:44:24;17.74;79.69
65470;DHT22;52067;50.710;14.492;2022-09-09T08:55:20;17.91;78.97
65470;DHT22;52067;50.710;14.492;2022-09-09T08:57:49;17.88;79.53
65470;DHT22;52067;50.710;14.492;2022-09-09T09:00:17;17.82;79.05
65470;DHT22;52067;50.710;14.492;2022-09-09T09:07:55;18.42;77.00
65470;DHT22;52067;50.710;14.492;2022-09-09T09:10:48;19.22;75.98
65470;DHT22;52067;50.710;14.492;2022-09-09T09:13:18;19.89;74.42
65470;DHT22;52067;50.710;14.492;2022-09-09T09:15:50;19.66;72.83
65470;DHT22;52067;50.710;14.492;2022-09-09T09:18:18;19.01;74.76
65470;DHT22;52067;50.710;14.492;2022-09-09T09:23:58;20.10;73.87
65470;DHT22;52067;50.710;14.492;2022-09-09T09:26:29;20.05;75.37
65470;DHT22;52067;50.710;14.492;2022-09-09T09:28:56;20.20;71.98
65470;DHT22;52067;50.710;14.492;2022-09-09T09:31:22;20.13;72.12
65470;DHT22;52067;50.710;14.492;2022-09-09T09:33:53;19.27;76.22
65470;DHT22;52067;50.710;14.492;2022-09-09T09:36:20;19.82;76.11
65470;DHT22;52067;50.710;14.492;2022-09-09T09:38:55;20.17;73.60
65470;DHT22;52067;50.710;14.492;2022-09-09T09:43:56;20.01;73.44
65470;DHT22;52067;50.710;14.492;2022-09-09T09:46:24;19.61;73.78
65470;DHT22;52067;50.710;14.492;2022-09-09T09:48:58;19.55;74.99
65470;DHT22;52067;50.710;14.492;2022-09-09T09:51:24;20.35;74.31
65470;DHT22;52067;50.710;14.492;2022-09-09T09:53:50;19.79;75.10
65470;DHT22;52067;50.710;14.492;2022-09-09T09:56:26;19.79;74.91
65470;DHT22;52067;50.710;14.492;2022-09-09T09:58:53;19.66;75.96
65470;DHT22;52067;50.710;14.492;2022-09-09T10:03:54;24.16;62.86
65470;DHT22;52067;50.710;14.492;2022-09-09T10:06:38;24.99;58.64
65470;DHT22;52067;50.710;14.492;2022-09-09T10:12:08;27.32;53.32
65470;DHT22;52067;50.710;14.492;2022-09-09T10:14:47;28.28;48.97
65470;DHT22;52067;50.710;14.492;2022-09-09T10:20:48;29.23;44.69
65470;DHT22;52067;50.710;14.492;2022-09-09T10:22:44;28.58;46.50
65470;DHT22;52067;50.710;14.492;2022-09-09T10:25:30;28.21;46.86
65470;DHT22;52067;50.710;14.492;2022-09-09T10:33:51;29.06;45.22
65470;DHT22;52067;50.710;14.492;2022-09-09T10:36:25;29.91;43.15
65470;DHT22;52067;50.710;14.492;2022-09-09T10:39:06;29.25;44.54
65470;DHT22;52067;50.710;14.492;2022-09-09T10:42:05;29.81;43.61
65470;DHT22;52067;50.710;14.492;2022-09-09T10:52:29;31.42;39.99
65470;DHT22;52067;50.710;14.492;2022-09-09T10:57:33;30.14;40.73
65470;DHT22;52067;50.710;14.492;2022-09-09T11:00:06;28.13;44.91
65470;DHT22;52067;50.710;14.492;2022-09-09T11:02:33;27.38;45.86
65470;DHT22;52067;50.710;14.492;2022-09-09T11:08:21;30.62;41.57
65470;DHT22;52067;50.710;14.492;2022-09-09T11:10:53;32.19;37.44
65470;DHT22;52067;50.710;14.492;2022-09-09T11:13:35;31.59;35.68
65470;DHT22;52067;50.710;14.492;2022-09-09T11:19:36;31.80;32.67
65470;DHT22;52067;50.710;14.492;2022-09-09T11:24:56;27.88;41.88
65470;DHT22;52067;50.710;14.492;2022-09-09T11:27:29;28.24;41.43
65470;DHT22;52067;50.710;14.492;2022-09-09T11:38:47;27.38;39.31
65470;DHT22;52067;50.710;14.492;2022-09-09T11:41:17;28.10;38.72
65470;DHT22;52067;50.710;14.492;2022-09-09T11:43:45;28.98;39.32
65470;DHT22;52067;50.710;14.492;2022-09-09T11:46:13;29.23;39.44
65470;DHT22;52067;50.710;14.492;2022-09-09T11:48:43;30.18;36.43
65470;DHT22;52067;50.710;14.492;2022-09-09T11:51:31;29.54;38.28
65470;DHT22;52067;50.710;14.492;2022-09-09T11:56:53;29.15;38.30
65470;DHT22;52067;50.710;14.492;2022-09-09T11:59:30;30.06;36.09
65470;DHT22;52067;50.710;14.492;2022-09-09T12:02:22;29.97;36.14
65470;DHT22;52067;50.710;14.492;2022-09-09T12:05:11;29.02;37.64
65470;DHT22;52067;50.710;14.492;2022-09-09T12:07:41;27.78;41.71
65470;DHT22;52067;50.710;14.492;2022-09-09T12:12:35;28.03;39.09
65470;DHT22;52067;50.710;14.492;2022-09-09T12:17:47;29.08;38.25
65470;DHT22;52067;50.710;14.492;2022-09-09T12:33:51;26.57;44.72
65470;DHT22;52067;50.710;14.492;2022-09-09T12:36:38;26.55;44.37
65470;DHT22;52067;50.710;14.492;2022-09-09T12:39:18;27.42;43.50
65470;DHT22;52067;50.710;14.492;2022-09-09T12:41:51;27.08;43.47
65470;DHT22;52067;50.710;14.492;2022-09-09T12:44:23;26.21;44.64
65470;DHT22;52067;50.710;14.492;2022-09-09T12:46:49;25.47;46.53
65470;DHT22;52067;50.710;14.492;2022-09-09T12:49:38;25.53;48.27
65470;DHT22;52067;50.710;14.492;2022-09-09T12:52:08;27.04;45.08
65470;DHT22;52067;50.710;14.492;2022-09-09T12:54:36;29.23;40.80
65470;DHT22;52067;50.710;14.492;2022-09-09T12:57:03;30.25;37.44
65470;DHT22;52067;50.710;14.492;2022-09-09T12:59:37;28.98;39.12
65470;DHT22;52067;50.710;14.492;2022-09-09T13:02:26;29.54;38.12
65470;DHT22;52067;50.710;14.492;2022-09-09T13:04:50;28.24;40.02
65470;DHT22;52067;50.710;14.492;2022-09-09T13:07:17;27.86;42.72
65470;DHT22;52067;50.710;14.492;2022-09-09T13:09:46;28.96;40.56
65470;DHT22;52067;50.710;14.492;2022-09-09T13:12:22;30.19;38.71
65470;DHT22;52067;50.710;14.492;2022-09-09T13:14:55;29.88;37.66
65470;DHT22;52067;50.710;14.492;2022-09-09T13:17:24;29.61;38.93
65470;DHT22;52067;50.710;14.492;2022-09-09T13:19:51;31.00;36.33
65470;DHT22;52067;50.710;14.492;2022-09-09T13:22:30;30.70;36.08
65470;DHT22;52067;50.710;14.492;2022-09-09T13:27:41;28.11;40.52
65470;DHT22;52067;50.710;14.492;2022-09-09T13:30:39;27.45;44.61
65470;DHT22;52067;50.710;14.492;2022-09-09T13:35:32;25.36;46.35
65470;DHT22;52067;50.710;14.492;2022-09-09T13:37:58;24.79;48.32
65470;DHT22;52067;50.710;14.492;2022-09-09T13:40:25;25.02;47.50
65470;DHT22;52067;50.710;14.492;2022-09-09T13:42:57;24.67;48.02
65470;DHT22;52067;50.710;14.492;2022-09-09T13:45:25;24.10;49.54
65470;DHT22;52067;50.710;14.492;2022-09-09T13:47:55;23.96;48.32
65470;DHT22;52067;50.710;14.492;2022-09-09T13:50:26;23.93;48.91
65470;DHT22;52067;50.710;14.492;2022-09-09T13:52:54;24.04;47.92
65470;DHT22;52067;50.710;14.492;2022-09-09T13:55:21;24.24;48.89
65470;DHT22;52067;50.710;14.492;2022-09-09T13:58:01;24.68;47.75
65470;DHT22;52067;50.710;14.492;2022-09-09T14:00:29;25.18;47.18
65470;DHT22;52067;50.710;14.492;2022-09-09T14:02:55;24.47;47.82
65470;DHT22;52067;50.710;14.492;2022-09-09T14:05:21;24.52;48.24
65470;DHT22;52067;50.710;14.492;2022-09-09T14:07:48;24.58;47.27
65470;DHT22;52067;50.710;14.492;2022-09-09T14:10:14;24.41;49.01
65470;DHT22;52067;50.710;14.492;2022-09-09T14:12:39;24.68;45.91
65470;DHT22;52067;50.710;14.492;2022-09-09T14:15:06;25.84;44.30
65470;DHT22;52067;50.710;14.492;2022-09-09T14:17:33;25.51;45.98
65470;DHT22;52067;50.710;14.492;2022-09-09T14:20:02;25.06;47.52
65470;DHT22;52067;50.710;14.492;2022-09-09T14:22:28;24.45;50.36
65470;DHT22;52067;50.710;14.492;2022-09-09T14:24:53;23.31;52.68
65470;DHT22;52067;50.710;14.492;2022-09-09T14:27:18;23.14;53.70
65470;DHT22;52067;50.710;14.492;2022-09-09T14:29:44;23.18;54.03
65470;DHT22;52067;50.710;14.492;2022-09-09T14:32:11;22.88;55.05
65470;DHT22;52067;50.710;14.492;2022-09-09T14:34:36;22.80;56.28
65470;DHT22;52067;50.710;14.492;2022-09-09T14:37:02;22.83;56.92
65470;DHT22;52067;50.710;14.492;2022-09-09T14:39:27;22.73;56.69
65470;DHT22;52067;50.710;14.492;2022-09-09T14:41:53;22.94;56.22
65470;DHT22;52067;50.710;14.492;2022-09-09T14:44:18;24.24;53.79
65470;DHT22;52067;50.710;14.492;2022-09-09T14:46:44;24.89;51.80
65470;DHT22;52067;50.710;14.492;2022-09-09T14:49:09;23.39;54.99
65470;DHT22;52067;50.710;14.492;2022-09-09T14:51:38;22.33;58.86
65470;DHT22;52067;50.710;14.492;2022-09-09T14:54:04;21.36;59.78
65470;DHT22;52067;50.710;14.492;2022-09-09T14:56:31;20.91;62.28
65470;DHT22;52067;50.710;14.492;2022-09-09T14:58:58;21.27;62.47
65470;DHT22;52067;50.710;14.492;2022-09-09T15:01:26;20.92;63.58
65470;DHT22;52067;50.710;14.492;2022-09-09T15:03:56;21.10;63.27
65470;DHT22;52067;50.710;14.492;2022-09-09T15:06:23;20.85;63.31
65470;DHT22;52067;50.710;14.492;2022-09-09T15:08:51;21.64;60.10
65470;DHT22;52067;50.710;14.492;2022-09-09T15:11:17;21.18;61.14
65470;DHT22;52067;50.710;14.492;2022-09-09T15:13:44;20.75;61.09
65470;DHT22;52067;50.710;14.492;2022-09-09T15:16:15;21.37;60.23
65470;DHT22;52067;50.710;14.492;2022-09-09T15:18:41;21.90;59.10
65470;DHT22;52067;50.710;14.492;2022-09-09T15:21:19;22.60;57.69
65470;DHT22;52067;50.710;14.492;2022-09-09T15:23:45;22.05;57.18
65470;DHT22;52067;50.710;14.492;2022-09-09T15:26:11;21.97;58.42
65470;DHT22;52067;50.710;14.492;2022-09-09T15:28:39;21.82;59.62
65470;DHT22;52067;50.710;14.492;2022-09-09T15:33:52;21.03;60.76
65470;DHT22;52067;50.710;14.492;2022-09-09T15:36:24;21.13;60.72
65470;DHT22;52067;50.710;14.492;2022-09-09T15:38:50;20.95;60.31
65470;DHT22;52067;50.710;14.492;2022-09-09T15:41:18;20.47;61.73
65470;DHT22;52067;50.710;14.492;2022-09-09T15:43:44;20.55;62.22
65470;DHT22;52067;50.710;14.492;2022-09-09T15:46:34;20.07;62.69
65470;DHT22;52067;50.710;14.492;2022-09-09T15:49:14;20.26;62.10
65470;DHT22;52067;50.710;14.492;2022-09-09T15:51:41;20.24;61.81
65470;DHT22;52067;50.710;14.492;2022-09-09T15:54:12;20.00;63.33
65470;DHT22;52067;50.710;14.492;2022-09-09T15:56:38;20.26;63.90
65470;DHT22;52067;50.710;14.492;2022-09-09T15:59:03;20.21;62.75
65470;DHT22;52067;50.710;14.492;2022-09-09T16:01:29;20.12;62.72
65470;DHT22;52067;50.710;14.492;2022-09-09T16:03:56;20.05;64.38
65470;DHT22;52067;50.710;14.492;2022-09-09T16:06:24;19.77;65.12
65470;DHT22;52067;50.710;14.492;2022-09-09T16:08:52;19.82;66.26
65470;DHT22;52067;50.710;14.492;2022-09-09T16:11:26;19.59;67.26
65470;DHT22;52067;50.710;14.492;2022-09-09T16:13:53;19.66;67.49
65470;DHT22;52067;50.710;14.492;2022-09-09T16:16:22;19.27;69.19
65470;DHT22;52067;50.710;14.492;2022-09-09T16:18:55;19.36;68.97
65470;DHT22;52067;50.710;14.492;2022-09-09T16:21:26;19.47;68.97
65470;DHT22;52067;50.710;14.492;2022-09-09T16:23:54;19.34;70.32
65470;DHT22;52067;50.710;14.492;2022-09-09T16:26:20;19.14;70.00
65470;DHT22;52067;50.710;14.492;2022-09-09T16:28:46;19.07;70.79
65470;DHT22;52067;50.710;14.492;2022-09-09T16:31:17;19.03;71.03
65470;DHT22;52067;50.710;14.492;2022-09-09T16:33:44;18.86;72.42
65470;DHT22;52067;50.710;14.492;2022-09-09T16:36:12;18.74;72.75
65470;DHT22;52067;50.710;14.492;2022-09-09T16:38:39;18.39;73.78
65470;DHT22;52067;50.710;14.492;2022-09-09T16:41:06;18.39;74.83
65470;DHT22;52067;50.710;14.492;2022-09-09T16:43:33;18.46;74.35
65470;DHT22;52067;50.710;14.492;2022-09-09T16:45:58;18.55;74.09
65470;DHT22;52067;50.710;14.492;2022-09-09T16:48:26;18.57;74.27
65470;DHT22;52067;50.710;14.492;2022-09-09T16:50:52;18.52;74.23
65470;DHT22;52067;50.710;14.492;2022-09-09T16:53:18;18.36;74.96
65470;DHT22;52067;50.710;14.492;2022-09-09T16:55:43;18.38;74.65
65470;DHT22;52067;50.710;14.492;2022-09-09T16:58:12;18.31;74.71
65470;DHT22;52067;50.710;14.492;2022-09-09T17:00:37;18.25;74.73
65470;DHT22;52067;50.710;14.492;2022-09-09T17:03:03;18.02;76.72
65470;DHT22;52067;50.710;14.492;2022-09-09T17:05:28;17.71;77.15
65470;DHT22;52067;50.710;14.492;2022-09-09T17:07:54;17.67;77.69
65470;DHT22;52067;50.710;14.492;2022-09-09T17:10:23;17.67;78.29
65470;DHT22;52067;50.710;14.492;2022-09-09T17:12:48;17.74;77.66
65470;DHT22;52067;50.710;14.492;2022-09-09T17:15:13;17.67;77.69
65470;DHT22;52067;50.710;14.492;2022-09-09T17:17:40;17.29;79.36
65470;DHT22;52067;50.710;14.492;2022-09-09T17:20:08;17.02;79.73
65470;DHT22;52067;50.710;14.492;2022-09-09T17:22:34;17.13;79.47
65470;DHT22;52067;50.710;14.492;2022-09-09T17:25:00;17.06;79.98
65470;DHT22;52067;50.710;14.492;2022-09-09T17:27:25;16.68;81.53
65470;DHT22;52067;50.710;14.492;2022-09-09T17:29:51;16.74;81.54
65470;DHT22;52067;50.710;14.492;2022-09-09T17:32:16;16.72;81.28
65470;DHT22;52067;50.710;14.492;2022-09-09T17:34:42;16.71;81.21
65470;DHT22;52067;50.710;14.492;2022-09-09T17:37:07;16.79;80.67
65470;DHT22;52067;50.710;14.492;2022-09-09T17:39:32;16.81;80.30
65470;DHT22;52067;50.710;14.492;2022-09-09T17:41:58;16.89;79.88
65470;DHT22;52067;50.710;14.492;2022-09-09T17:44:24;16.55;81.28
65470;DHT22;52067;50.710;14.492;2022-09-09T17:46:49;16.45;81.90
65470;DHT22;52067;50.710;14.492;2022-09-09T17:49:16;16.76;79.54